createdAt,value
2016-04-22T14:21:56.038Z,1011.06
2016-04-22T14:22:38.350Z,1011.1
2016-04-22T14:23:21.556Z,1011.07
2016-04-22T14:24:04.809Z,1011.04
2016-04-22T14:24:47.890Z,1011.04
2016-04-22T14:25:31.051Z,1011.05
2016-04-22T14:26:14.068Z,1010.99
2016-04-22T14:26:56.931Z,1010.95
2016-04-22T14:27:39.900Z,1010.98
2016-04-22T14:28:22.871Z,1010.94
2016-04-22T14:29:06.046Z,1010.92
2016-04-22T14:29:49.079Z,1010.91
2016-04-22T14:30:32.236Z,1010.92
2016-04-22T14:31:15.004Z,1010.87
2016-04-22T14:31:58.038Z,1010.85
2016-04-22T14:32:41.244Z,1010.82
2016-04-22T14:33:24.337Z,1010.85
2016-04-22T14:34:07.419Z,1010.82
2016-04-22T14:34:50.514Z,1010.79
2016-04-22T14:35:33.499Z,1010.79
2016-04-22T14:36:16.409Z,1010.78
2016-04-22T14:36:59.317Z,1010.75
2016-04-22T14:37:42.398Z,1010.74
2016-04-22T14:38:25.633Z,1010.75
2016-04-22T14:39:08.683Z,1010.71
2016-04-22T14:39:51.903Z,1010.75
2016-04-22T14:40:35.044Z,1010.73
2016-04-22T14:41:18.266Z,1010.74
2016-04-22T14:42:01.455Z,1010.72
2016-04-22T14:42:44.458Z,1010.75
2016-04-22T14:43:26.693Z,1010.75
2016-04-22T14:44:09.789Z,1010.7
2016-04-22T14:44:52.761Z,1010.73
2016-04-22T14:45:35.949Z,1010.65
2016-04-22T14:46:19.169Z,1010.6
2016-04-22T14:47:01.421Z,1010.59
2016-04-22T14:47:44.534Z,1010.61
2016-04-22T14:48:27.909Z,1010.54
2016-04-22T14:49:10.380Z,1010.6
2016-04-22T14:49:53.790Z,1010.61
2016-04-22T14:50:37.071Z,1010.6
2016-04-22T14:51:20.340Z,1010.57
2016-04-22T14:52:03.889Z,1010.53
2016-04-22T14:52:46.954Z,1010.54
2016-04-22T14:53:30.079Z,1010.53
2016-04-22T14:54:13.175Z,1010.52
2016-04-22T14:54:56.865Z,1010.54
2016-04-22T14:55:39.225Z,1010.51
2016-04-22T14:56:22.540Z,1010.5
2016-04-22T14:57:05.949Z,1010.52
2016-04-22T14:57:49.187Z,1010.5
2016-04-22T14:58:32.155Z,1010.51
2016-04-22T14:59:15.377Z,1010.51
2016-04-22T14:59:58.707Z,1010.5
2016-04-22T15:00:41.866Z,1010.52
2016-04-22T15:01:25.147Z,1010.52
2016-04-22T15:02:08.181Z,1010.5
2016-04-22T15:02:51.325Z,1010.48
2016-04-22T15:03:34.590Z,1010.47
2016-04-22T15:04:17.906Z,1010.49
2016-04-22T15:05:01.423Z,1010.46
2016-04-22T15:05:44.676Z,1010.46
2016-04-22T15:06:27.786Z,1010.45
2016-04-22T15:07:11.289Z,1010.46
2016-04-22T15:07:54.400Z,1010.42
2016-04-22T15:08:37.447Z,1010.4
2016-04-22T15:09:20.622Z,1010.35
2016-04-22T15:10:03.875Z,1010.39
2016-04-22T15:10:47.033Z,1010.36
2016-04-22T15:11:30.408Z,1010.36
2016-04-22T15:12:13.599Z,1010.32
2016-04-22T15:12:56.789Z,1010.35
2016-04-22T15:13:40.024Z,1010.35
2016-04-22T15:14:23.198Z,1010.33
2016-04-22T15:15:06.419Z,1010.37
2016-04-22T15:15:49.624Z,1010.26
2016-04-22T15:16:32.906Z,1010.28
2016-04-22T15:17:16.066Z,1010.36
2016-04-22T15:17:59.099Z,1010.38
2016-04-22T15:18:42.415Z,1010.35
2016-04-22T15:19:25.571Z,1010.37
2016-04-22T15:20:08.479Z,1010.31
2016-04-22T15:20:51.763Z,1010.32
2016-04-22T15:21:34.904Z,1010.31
2016-04-22T15:22:17.923Z,1010.29
2016-04-22T15:23:01.035Z,1010.31
2016-04-22T15:23:44.021Z,1010.26
2016-04-22T15:24:27.193Z,1010.24
2016-04-22T15:25:10.212Z,1010.27
2016-04-22T15:25:53.230Z,1010.25
2016-04-22T15:26:36.262Z,1010.24
2016-04-22T15:27:19.546Z,1010.25
2016-04-22T15:28:02.345Z,1010.24
2016-04-22T15:28:45.348Z,1010.26
2016-04-22T15:29:28.395Z,1010.28
2016-04-22T15:30:11.429Z,1010.25
2016-04-22T15:30:54.385Z,1010.23
2016-04-22T15:31:37.307Z,1010.21
2016-04-22T15:32:20.386Z,1010.26
2016-04-22T15:33:03.405Z,1010.27
2016-04-22T15:33:46.455Z,1010.23
2016-04-22T15:34:29.408Z,1010.26
2016-04-22T15:35:12.364Z,1010.2
2016-04-22T15:35:55.397Z,1010.16
2016-04-22T15:36:38.303Z,1010.16
2016-04-22T15:37:21.213Z,1010.16
2016-04-22T15:38:03.950Z,1010.16
2016-04-22T15:38:46.858Z,1010.12
2016-04-22T15:39:29.874Z,1010.12
2016-04-22T15:40:12.924Z,1010.11
2016-04-22T15:40:55.333Z,1010.07
2016-04-22T15:41:38.427Z,1010.09
2016-04-22T15:42:21.227Z,1010.09
2016-04-22T15:43:04.339Z,1010.03
2016-04-22T15:43:47.341Z,1010.03
2016-04-22T15:44:30.232Z,1010.02
2016-04-22T15:45:13.156Z,1010.03
2016-04-22T15:45:56.394Z,1010.03
2016-04-22T15:46:38.675Z,1010.07
2016-04-22T15:47:21.678Z,1010.01
2016-04-22T15:48:04.538Z,1010.03
2016-04-22T15:48:47.682Z,1010.02
2016-04-22T15:49:30.666Z,1010.05
2016-04-22T15:50:13.749Z,1010.03
2016-04-22T15:50:56.740Z,1010.05
2016-04-22T15:51:39.818Z,1010
2016-04-22T15:52:22.774Z,1009.99
2016-04-22T15:53:05.792Z,1009.97
2016-04-22T15:53:49.185Z,1010.02
2016-04-22T15:54:32.201Z,1009.97
2016-04-22T15:55:15.345Z,1009.97
2016-04-22T15:55:58.410Z,1009.94
2016-04-22T15:56:41.504Z,1009.95
2016-04-22T15:57:24.600Z,1009.91
2016-04-22T15:58:07.696Z,1009.89
2016-04-22T15:58:50.731Z,1009.9
2016-04-22T15:59:33.777Z,1009.92
2016-04-22T16:00:16.890Z,1009.9
2016-04-22T16:01:00.032Z,1009.89
2016-04-22T16:01:42.876Z,1009.89
2016-04-22T16:02:26.067Z,1009.89
2016-04-22T16:03:10.741Z,1009.86
2016-04-22T16:03:55.244Z,1009.85
2016-04-22T16:04:38.197Z,1009.87
2016-04-22T16:05:21.153Z,1009.85
2016-04-22T16:06:04.046Z,1009.84
2016-04-22T16:06:46.970Z,1009.89
2016-04-22T16:07:29.908Z,1009.86
2016-04-22T16:08:13.270Z,1009.86
2016-04-22T16:08:58.866Z,1009.78
2016-04-22T16:09:41.866Z,1009.82
2016-04-22T16:10:27.838Z,1009.79
2016-04-22T16:11:10.997Z,1009.79
2016-04-22T16:11:53.999Z,1009.8
2016-04-22T16:12:37.108Z,1009.77
2016-04-22T16:13:20.205Z,1009.76
2016-04-22T16:14:04.380Z,1009.8
2016-04-22T16:14:47.476Z,1009.78
2016-04-22T16:15:30.616Z,1009.8
2016-04-22T16:16:13.432Z,1009.79
2016-04-22T16:16:56.497Z,1009.76
2016-04-22T16:17:39.622Z,1009.77
2016-04-22T16:18:23.797Z,1009.74
2016-04-22T16:19:07.737Z,1009.7
2016-04-22T16:19:50.755Z,1009.73
2016-04-22T16:20:33.708Z,1009.71
2016-04-22T16:21:16.743Z,1009.73
2016-04-22T16:21:59.698Z,1009.73
2016-04-22T16:22:42.917Z,1009.76
2016-04-22T16:23:25.841Z,1009.72
2016-04-22T16:24:08.954Z,1009.71
2016-04-22T16:24:51.972Z,1009.71
2016-04-22T16:25:35.019Z,1009.69
2016-04-22T16:26:18.006Z,1009.67
2016-04-22T16:27:01.071Z,1009.68
2016-04-22T16:27:43.993Z,1009.71
2016-04-22T16:28:27.309Z,1009.65
2016-04-22T16:29:10.124Z,1009.65
2016-04-22T16:29:53.017Z,1009.61
2016-04-22T16:30:35.907Z,1009.64
2016-04-22T16:31:18.848Z,1009.6
2016-04-22T16:32:01.756Z,1009.62
2016-04-22T16:32:44.662Z,1009.6
2016-04-22T16:33:28.290Z,1009.64
2016-04-22T16:34:12.465Z,1009.64
2016-04-22T16:34:55.374Z,1009.64
2016-04-22T16:35:38.281Z,1009.58
2016-04-22T16:36:21.236Z,1009.64
2016-04-22T16:37:04.145Z,1009.57
2016-04-22T16:37:47.053Z,1009.57
2016-04-22T16:38:29.944Z,1009.55
2016-04-22T16:39:14.931Z,1009.53
2016-04-22T16:39:57.840Z,1009.57
2016-04-22T16:40:40.730Z,1009.56
2016-04-22T16:41:23.639Z,1009.52
2016-04-22T16:42:06.517Z,1009.58
2016-04-22T16:42:49.427Z,1009.54
2016-04-22T16:43:33.786Z,1009.57
2016-04-22T16:44:17.085Z,1009.55
2016-04-22T16:45:00.010Z,1009.58
2016-04-22T16:45:42.916Z,1009.54
2016-04-22T16:46:24.935Z,1009.55
2016-04-22T16:47:07.812Z,1009.54
2016-04-22T16:47:50.752Z,1009.56
2016-04-22T16:48:33.955Z,1009.52
2016-04-22T16:49:16.849Z,1009.56
2016-04-22T16:50:00.180Z,1009.55
2016-04-22T16:50:43.055Z,1009.54
2016-04-22T16:51:25.995Z,1009.57
2016-04-22T16:52:08.904Z,1009.53
2016-04-22T16:52:51.843Z,1009.52
2016-04-22T16:53:34.718Z,1009.51
2016-04-22T16:54:17.629Z,1009.52
2016-04-22T16:55:00.537Z,1009.52
2016-04-22T16:55:43.412Z,1009.53
2016-04-22T16:56:26.337Z,1009.51
2016-04-22T16:57:09.229Z,1009.52
2016-04-22T16:57:52.123Z,1009.5
2016-04-22T16:58:35.029Z,1009.5
2016-04-22T16:59:17.923Z,1009.52
2016-04-22T17:00:00.832Z,1009.47
2016-04-22T17:00:43.738Z,1009.46
2016-04-22T17:01:26.678Z,1009.45
2016-04-22T17:02:09.571Z,1009.52
2016-04-22T17:02:52.481Z,1009.46
2016-04-22T17:03:35.387Z,1009.44
2016-04-22T17:04:18.295Z,1009.48
2016-04-22T17:05:01.189Z,1009.46
2016-04-22T17:05:44.095Z,1009.42
2016-04-22T17:06:27.004Z,1009.43
2016-04-22T17:07:09.914Z,1009.44
2016-04-22T17:07:52.822Z,1009.41
2016-04-22T17:08:35.712Z,1009.4
2016-04-22T17:09:18.606Z,1009.39
2016-04-22T17:10:01.484Z,1009.4
2016-04-22T17:10:44.375Z,1009.42
2016-04-22T17:11:27.300Z,1009.38
2016-04-22T17:12:10.208Z,1009.42
2016-04-22T17:12:53.100Z,1009.41
2016-04-22T17:13:36.007Z,1009.38
2016-04-22T17:14:18.901Z,1009.39
2016-04-22T17:15:01.778Z,1009.37
2016-04-22T17:15:44.669Z,1009.35
2016-04-22T17:16:27.453Z,1009.38
2016-04-22T17:17:10.347Z,1009.38
2016-04-22T17:17:53.255Z,1009.35
2016-04-22T17:18:36.161Z,1009.35
2016-04-22T17:19:19.257Z,1009.36
2016-04-22T17:20:02.135Z,1009.38
2016-04-22T17:20:45.057Z,1009.33
2016-04-22T17:21:27.935Z,1009.33
2016-04-22T17:22:10.880Z,1009.33
2016-04-22T17:22:53.773Z,1009.32
2016-04-22T17:23:36.695Z,1009.33
2016-04-22T17:24:19.573Z,1009.35
2016-04-22T17:25:02.481Z,1009.32
2016-04-22T17:25:45.778Z,1009.35
2016-04-22T17:26:28.704Z,1009.3
2016-04-22T17:27:11.597Z,1009.32
2016-04-22T17:27:54.537Z,1009.32
2016-04-22T17:28:37.459Z,1009.3
2016-04-22T17:29:20.384Z,1009.34
2016-04-22T17:30:03.276Z,1009.34
2016-04-22T17:30:46.183Z,1009.35
2016-04-22T17:31:29.045Z,1009.31
2016-04-22T17:32:11.954Z,1009.31
2016-04-22T17:32:54.863Z,1009.3
2016-04-22T17:33:37.738Z,1009.29
2016-04-22T17:34:20.631Z,1009.32
2016-04-22T17:35:03.540Z,1009.32
2016-04-22T17:35:46.447Z,1009.31
2016-04-22T17:36:29.339Z,1009.31
2016-04-22T17:37:12.233Z,1009.31
2016-04-22T17:37:55.158Z,1009.31
2016-04-22T17:38:38.048Z,1009.24
2016-04-22T17:39:20.958Z,1009.29
2016-04-22T17:40:03.867Z,1009.26
2016-04-22T17:40:46.757Z,1009.28
2016-04-22T17:41:29.650Z,1009.3
2016-04-22T17:42:12.528Z,1009.23
2016-04-22T17:42:55.436Z,1009.28
2016-04-22T17:43:38.327Z,1009.26
2016-04-22T17:44:21.236Z,1009.3
2016-04-22T17:45:04.145Z,1009.24
2016-04-22T17:45:47.054Z,1009.26
2016-04-22T17:46:29.772Z,1009.27
2016-04-22T17:47:12.682Z,1009.25
2016-04-22T17:47:55.575Z,1009.2
2016-04-22T17:48:38.482Z,1009.31
2016-04-22T17:49:21.359Z,1009.26
2016-04-22T17:50:04.283Z,1009.24
2016-04-22T17:50:46.408Z,1009.2
2016-04-22T17:51:29.302Z,1009.22
2016-04-22T17:52:12.226Z,1009.18
2016-04-22T17:52:55.136Z,1009.2
2016-04-22T17:53:38.027Z,1009.16
2016-04-22T17:54:20.918Z,1009.16
2016-04-22T17:55:03.812Z,1009.15
2016-04-22T17:55:46.734Z,1009.2
2016-04-22T17:56:29.612Z,1009.11
2016-04-22T17:57:12.537Z,1009.12
2016-04-22T17:57:55.399Z,1009.09
2016-04-22T17:58:38.305Z,1009.08
2016-04-22T17:59:21.214Z,1009.07
2016-04-22T18:00:04.139Z,1009.06
2016-04-22T18:00:47.045Z,1009.07
2016-04-22T18:01:29.953Z,1009.08
2016-04-22T18:02:12.895Z,1009.08
2016-04-22T18:02:55.803Z,1009.08
2016-04-22T18:03:38.693Z,1009.13
2016-04-22T18:04:21.650Z,1009.09
2016-04-22T18:05:04.573Z,1009.1
2016-04-22T18:05:47.464Z,1009.1
2016-04-22T18:06:30.374Z,1009.07
2016-04-22T18:07:13.282Z,1009.1
2016-04-22T18:07:56.176Z,1009.06
2016-04-22T18:08:39.098Z,1009.08
2016-04-22T18:09:21.992Z,1009.05
2016-04-22T18:10:04.884Z,1009.09
2016-04-22T18:10:47.775Z,1009.06
2016-04-22T18:11:30.683Z,1009.06
2016-04-22T18:12:13.561Z,1009.06
2016-04-22T18:12:56.470Z,1009.05
2016-04-22T18:13:40.564Z,1009.06
2016-04-22T18:14:23.316Z,1009.04
2016-04-22T18:15:06.069Z,1009.05
2016-04-22T18:15:48.963Z,1009.07
2016-04-22T18:16:31.853Z,1009.1
2016-04-22T18:17:14.747Z,1009.1
2016-04-22T18:17:57.702Z,1009.08
2016-04-22T18:18:40.640Z,1009.08
2016-04-22T18:19:23.518Z,1009.08
2016-04-22T18:20:06.427Z,1009.09
2016-04-22T18:20:49.304Z,1009.13
2016-04-22T18:21:32.226Z,1009.14
2016-04-22T18:22:14.979Z,1009.13
2016-04-22T18:22:57.904Z,1009.15
2016-04-22T18:23:40.794Z,1009.15
2016-04-22T18:24:23.704Z,1009.14
2016-04-22T18:25:06.596Z,1009.15
2016-04-22T18:25:49.490Z,1009.09
2016-04-22T18:26:32.380Z,1009.11
2016-04-22T18:27:14.477Z,1009.11
2016-04-22T18:27:57.401Z,1009.14
2016-04-22T18:28:40.292Z,1009.12
2016-04-22T18:29:23.170Z,1009.13
2016-04-22T18:30:05.282Z,1009.11
2016-04-22T18:30:48.470Z,1009.08
2016-04-22T18:31:31.363Z,1009.09
2016-04-22T18:32:14.240Z,1009.11
2016-04-22T18:32:57.134Z,1009.12
2016-04-22T18:33:40.009Z,1009.11
2016-04-22T18:34:22.933Z,1009.09
2016-04-22T18:35:05.826Z,1009.07
2016-04-22T18:35:48.733Z,1009.1
2016-04-22T18:36:31.611Z,1009.11
2016-04-22T18:37:14.503Z,1009.06
2016-04-22T18:37:57.397Z,1009.13
2016-04-22T18:38:40.272Z,1009.1
2016-04-22T18:39:23.197Z,1009.09
2016-04-22T18:40:06.089Z,1009.13
2016-04-22T18:40:48.996Z,1009.07
2016-04-22T18:41:31.874Z,1009.08
2016-04-22T18:42:14.783Z,1009.12
2016-04-22T18:42:57.676Z,1009.08
2016-04-22T18:43:40.583Z,1009.08
2016-04-22T18:44:23.319Z,1009.09
2016-04-22T18:45:06.228Z,1009.14
2016-04-22T18:45:49.119Z,1009.11
2016-04-22T18:46:31.996Z,1009.14
2016-04-22T18:47:14.108Z,1009.09
2016-04-22T18:47:57.018Z,1009.12
2016-04-22T18:48:39.908Z,1009.12
2016-04-22T18:49:22.832Z,1009.13
2016-04-22T18:50:05.727Z,1009.15
2016-04-22T18:50:48.633Z,1009.13
2016-04-22T18:51:31.527Z,1009.15
2016-04-22T18:52:14.450Z,1009.12
2016-04-22T18:52:57.327Z,1009.13
2016-04-22T18:53:40.234Z,1009.14
2016-04-22T18:54:23.128Z,1009.14
2016-04-22T18:55:06.052Z,1009.11
2016-04-22T18:55:48.943Z,1009.16
2016-04-22T18:56:31.867Z,1009.14
2016-04-22T18:57:14.760Z,1009.16
2016-04-22T18:57:57.685Z,1009.16
2016-04-22T18:58:41.857Z,1009.13
2016-04-22T18:59:24.766Z,1009.18
2016-04-22T19:00:07.690Z,1009.14
2016-04-22T19:00:50.584Z,1009.16
2016-04-22T19:01:33.464Z,1009.17
2016-04-22T19:02:16.342Z,1009.15
2016-04-22T19:02:59.235Z,1009.15
2016-04-22T19:03:42.126Z,1009.18
2016-04-22T19:04:25.034Z,1009.18
2016-04-22T19:05:07.928Z,1009.17
2016-04-22T19:05:50.820Z,1009.19
2016-04-22T19:06:33.711Z,1009.18
2016-04-22T19:07:16.605Z,1009.15
2016-04-22T19:07:59.514Z,1009.17
2016-04-22T19:08:42.389Z,1009.15
2016-04-22T19:09:25.298Z,1009.21
2016-04-22T19:10:08.175Z,1009.19
2016-04-22T19:10:51.069Z,1009.23
2016-04-22T19:11:33.991Z,1009.18
2016-04-22T19:12:16.884Z,1009.24
2016-04-22T19:12:59.761Z,1009.18
2016-04-22T19:13:42.652Z,1009.21
2016-04-22T19:14:25.546Z,1009.22
2016-04-22T19:15:08.439Z,1009.23
2016-04-22T19:15:51.363Z,1009.27
2016-04-22T19:16:34.238Z,1009.25
2016-04-22T19:17:17.147Z,1009.26
2016-04-22T19:18:00.057Z,1009.21
2016-04-22T19:18:42.932Z,1009.25
2016-04-22T19:19:25.824Z,1009.25
2016-04-22T19:20:08.749Z,1009.25
2016-04-22T19:20:51.643Z,1009.27
2016-04-22T19:21:34.549Z,1009.29
2016-04-22T19:22:17.457Z,1009.3
2016-04-22T19:23:00.366Z,1009.28
2016-04-22T19:23:43.273Z,1009.24
2016-04-22T19:24:26.151Z,1009.22
2016-04-22T19:25:09.043Z,1009.29
2016-04-22T19:25:51.937Z,1009.29
2016-04-22T19:26:34.828Z,1009.27
2016-04-22T19:27:17.721Z,1009.32
2016-04-22T19:28:00.598Z,1009.31
2016-04-22T19:28:43.520Z,1009.27
2016-04-22T19:29:26.415Z,1009.32
2016-04-22T19:30:09.339Z,1009.31
2016-04-22T19:30:52.231Z,1009.29
2016-04-22T19:31:35.137Z,1009.27
2016-04-22T19:32:18.016Z,1009.28
2016-04-22T19:33:00.768Z,1009.33
2016-04-22T19:33:43.690Z,1009.27
2016-04-22T19:34:26.600Z,1009.31
2016-04-22T19:35:09.492Z,1009.32
2016-04-22T19:35:52.401Z,1009.31
2016-04-22T19:36:35.292Z,1009.31
2016-04-22T19:37:18.186Z,1009.3
2016-04-22T19:38:01.079Z,1009.3
2016-04-22T19:38:43.954Z,1009.31
2016-04-22T19:39:26.863Z,1009.3
2016-04-22T19:40:09.725Z,1009.29
2016-04-22T19:40:52.665Z,1009.33
2016-04-22T19:41:35.556Z,1009.33
2016-04-22T19:42:18.450Z,1009.3
2016-04-22T19:43:01.170Z,1009.29
2016-04-22T19:43:44.061Z,1009.28
2016-04-22T19:44:26.970Z,1009.3
2016-04-22T19:45:09.847Z,1009.29
2016-04-22T19:45:52.772Z,1009.33
2016-04-22T19:46:35.694Z,1009.31
2016-04-22T19:47:18.572Z,1009.32
2016-04-22T19:48:01.527Z,1009.34
2016-04-22T19:48:44.402Z,1009.38
2016-04-22T19:49:27.296Z,1009.33
2016-04-22T19:50:10.299Z,1009.4
2016-04-22T19:50:53.364Z,1009.37
2016-04-22T19:51:36.255Z,1009.34
2016-04-22T19:52:19.180Z,1009.38
2016-04-22T19:53:02.056Z,1009.38
2016-04-22T19:53:44.962Z,1009.35
2016-04-22T19:54:27.856Z,1009.34
2016-04-22T19:55:10.734Z,1009.39
2016-04-22T19:55:53.877Z,1009.38
2016-04-22T19:56:36.893Z,1009.38
2016-04-22T19:57:19.802Z,1009.38
2016-04-22T19:58:01.899Z,1009.39
2016-04-22T19:58:44.790Z,1009.35
2016-04-22T19:59:27.667Z,1009.41
2016-04-22T20:00:10.559Z,1009.42
2016-04-22T20:00:53.453Z,1009.39
2016-04-22T20:01:39.515Z,1009.39
2016-04-22T20:02:22.456Z,1009.38
2016-04-22T20:03:05.349Z,1009.37
2016-04-22T20:03:48.256Z,1009.4
2016-04-22T20:04:31.133Z,1009.39
2016-04-22T20:05:14.058Z,1009.38
2016-04-22T20:05:56.935Z,1009.37
2016-04-22T20:06:39.825Z,1009.33
2016-04-22T20:07:22.844Z,1009.33
2016-04-22T20:08:05.784Z,1009.35
2016-04-22T20:08:48.691Z,1009.35
2016-04-22T20:09:31.600Z,1009.35
2016-04-22T20:10:14.508Z,1009.33
2016-04-22T20:10:57.511Z,1009.3
2016-04-22T20:11:40.449Z,1009.31
2016-04-22T20:12:23.327Z,1009.33
2016-04-22T20:13:06.235Z,1009.29
2016-04-22T20:13:51.719Z,1009.32
2016-04-22T20:14:34.644Z,1009.36
2016-04-22T20:15:17.506Z,1009.31
2016-04-22T20:16:00.416Z,1009.33
2016-04-22T20:16:43.291Z,1009.32
2016-04-22T20:17:26.168Z,1009.32
2016-04-22T20:18:09.077Z,1009.34
2016-04-22T20:18:55.017Z,1009.36
2016-04-22T20:19:37.939Z,1009.34
2016-04-22T20:20:20.833Z,1009.33
2016-04-22T20:21:03.741Z,1009.35
2016-04-22T20:21:46.788Z,1009.34
2016-04-22T20:22:29.791Z,1009.34
2016-04-22T20:23:12.684Z,1009.35
2016-04-22T20:23:58.140Z,1009.34
2016-04-22T20:24:41.030Z,1009.35
2016-04-22T20:25:23.924Z,1009.33
2016-04-22T20:26:06.818Z,1009.31
2016-04-22T20:26:49.708Z,1009.34
2016-04-22T20:27:32.617Z,1009.3
2016-04-22T20:28:15.510Z,1009.31
2016-04-22T20:28:58.404Z,1009.33
2016-04-22T20:29:41.310Z,1009.3
2016-04-22T20:30:24.203Z,1009.29
2016-04-22T20:31:07.096Z,1009.31
2016-04-22T20:31:50.003Z,1009.31
2016-04-22T20:32:32.896Z,1009.32
2016-04-22T20:33:15.773Z,1009.29
2016-04-22T20:34:01.620Z,1009.31
2016-04-22T20:34:44.511Z,1009.29
2016-04-22T20:35:27.545Z,1009.27
2016-04-22T20:36:10.469Z,1009.28
2016-04-22T20:36:53.359Z,1009.27
2016-04-22T20:37:36.253Z,1009.25
2016-04-22T20:38:19.459Z,1009.3
2016-04-22T20:39:03.383Z,1009.28
2016-04-22T20:39:46.274Z,1009.27
2016-04-22T20:40:29.198Z,1009.29
2016-04-22T20:41:12.108Z,1009.24
2016-04-22T20:41:55.001Z,1009.3
2016-04-22T20:42:37.892Z,1009.27
2016-04-22T20:43:20.816Z,1009.31
2016-04-22T20:44:03.709Z,1009.26
2016-04-22T20:44:46.616Z,1009.25
2016-04-22T20:45:29.509Z,1009.24
2016-04-22T20:46:12.403Z,1009.26
2016-04-22T20:46:55.296Z,1009.21
2016-04-22T20:47:38.202Z,1009.26
2016-04-22T20:48:21.095Z,1009.2
2016-04-22T20:49:04.004Z,1009.22
2016-04-22T20:49:46.894Z,1009.17
2016-04-22T20:50:29.835Z,1009.14
2016-04-22T20:51:13.166Z,1009.15
2016-04-22T20:51:56.074Z,1009.14
2016-04-22T20:52:39.043Z,1009.1
2016-04-22T20:53:22.047Z,1009.14
2016-04-22T20:54:04.955Z,1009.12
2016-04-22T20:54:47.830Z,1009.14
2016-04-22T20:55:30.802Z,1009.09
2016-04-22T20:56:13.741Z,1009.11
2016-04-22T20:56:56.635Z,1009.12
2016-04-22T20:57:39.526Z,1009.14
2016-04-22T20:58:22.435Z,1009.13
2016-04-22T20:59:05.421Z,1009.14
2016-04-22T20:59:48.343Z,1009.1
2016-04-22T21:00:31.315Z,1009.13
2016-04-22T21:01:14.209Z,1009.1
2016-04-22T21:01:57.101Z,1009.09
2016-04-22T21:02:39.992Z,1009.11
2016-04-22T21:03:22.917Z,1009.07
2016-04-22T21:04:05.810Z,1009.1
2016-04-22T21:04:48.717Z,1009.08
2016-04-22T21:05:30.797Z,1009.05
2016-04-22T21:06:13.690Z,1009.07
2016-04-22T21:06:56.834Z,1009.11
2016-04-22T21:07:39.725Z,1009.07
2016-04-22T21:08:22.634Z,1009.1
2016-04-22T21:09:05.512Z,1009.08
2016-04-22T21:09:48.387Z,1009.15
2016-04-22T21:10:31.279Z,1009.12
2016-04-22T21:11:14.172Z,1009.12
2016-04-22T21:11:57.050Z,1009.08
2016-04-22T21:12:39.956Z,1009.07
2016-04-22T21:13:22.850Z,1009.11
2016-04-22T21:14:05.743Z,1009.08
2016-04-22T21:14:48.633Z,1009.06
2016-04-22T21:15:31.528Z,1009.11
2016-04-22T21:16:14.436Z,1009.11
2016-04-22T21:16:57.330Z,1009.09
2016-04-22T21:17:39.439Z,1009.08
2016-04-22T21:18:22.316Z,1009.11
2016-04-22T21:19:05.211Z,1009.09
2016-04-22T21:19:48.133Z,1009.08
2016-04-22T21:20:31.025Z,1009.08
2016-04-22T21:21:13.934Z,1009.06
2016-04-22T21:21:56.796Z,1009.08
2016-04-22T21:22:39.702Z,1009.11
2016-04-22T21:23:22.596Z,1009.08
2016-04-22T21:24:05.520Z,1009.08
2016-04-22T21:24:48.410Z,1009.05
2016-04-22T21:25:31.367Z,1009.08
2016-04-22T21:26:14.276Z,1009.12
2016-04-22T21:26:57.154Z,1009.07
2016-04-22T21:27:40.060Z,1009.09
2016-04-22T21:28:22.187Z,1009.08
2016-04-22T21:29:05.080Z,1009.06
2016-04-22T21:29:47.987Z,1009.02
2016-04-22T21:30:30.896Z,1009.05
2016-04-22T21:31:13.789Z,1009.06
2016-04-22T21:31:56.682Z,1009.05
2016-04-22T21:32:39.573Z,1009.1
2016-04-22T21:33:22.466Z,1009.09
2016-04-22T21:34:05.359Z,1009.11
2016-04-22T21:34:48.250Z,1009.15
2016-04-22T21:35:31.164Z,1009.12
2016-04-22T21:36:14.082Z,1009.13
2016-04-22T21:36:57.078Z,1009.14
2016-04-22T21:37:39.826Z,1009.14
2016-04-22T21:38:22.563Z,1009.17
2016-04-22T21:39:06.029Z,1009.18
2016-04-22T21:39:49.880Z,1009.14
2016-04-22T21:40:32.820Z,1009.18
2016-04-22T21:41:15.703Z,1009.14
2016-04-22T21:41:58.596Z,1009.17
2016-04-22T21:42:41.487Z,1009.15
2016-04-22T21:43:24.396Z,1009.2
2016-04-22T21:44:07.288Z,1009.13
2016-04-22T21:44:50.163Z,1009.18
2016-04-22T21:45:33.073Z,1009.17
2016-04-22T21:46:15.965Z,1009.16
2016-04-22T21:46:58.891Z,1009.16
2016-04-22T21:47:41.516Z,1009.15
2016-04-22T21:48:24.393Z,1009.17
2016-04-22T21:49:07.297Z,1009.14
2016-04-22T21:49:50.187Z,1009.18
2016-04-22T21:50:33.111Z,1009.11
2016-04-22T21:51:16.005Z,1009.14
2016-04-22T21:51:58.883Z,1009.15
2016-04-22T21:52:41.617Z,1009.15
2016-04-22T21:53:24.511Z,1009.15
2016-04-22T21:54:07.419Z,1009.17
2016-04-22T21:54:50.310Z,1009.15
2016-04-22T21:55:33.250Z,1009.18
2016-04-22T21:56:16.144Z,1009.19
2016-04-22T21:56:59.052Z,1009.2
2016-04-22T21:57:41.943Z,1009.18
2016-04-22T21:58:24.852Z,1009.22
2016-04-22T21:59:07.730Z,1009.23
2016-04-22T21:59:50.636Z,1009.21
2016-04-22T22:00:33.529Z,1009.22
2016-04-22T22:01:16.438Z,1009.18
2016-04-22T22:01:59.347Z,1009.22
2016-04-22T22:02:42.238Z,1009.23
2016-04-22T22:03:25.115Z,1009.21
2016-04-22T22:04:08.024Z,1009.23
2016-04-22T22:04:50.915Z,1009.24
2016-04-22T22:05:33.793Z,1009.21
2016-04-22T22:06:16.686Z,1009.21
2016-04-22T22:06:59.596Z,1009.22
2016-04-22T22:07:42.486Z,1009.15
2016-04-22T22:08:25.394Z,1009.21
2016-04-22T22:09:08.303Z,1009.21
2016-04-22T22:09:51.178Z,1009.24
2016-04-22T22:10:34.071Z,1009.27
2016-04-22T22:11:16.996Z,1009.21
2016-04-22T22:11:59.874Z,1009.23
2016-04-22T22:12:42.765Z,1009.24
2016-04-22T22:13:25.642Z,1009.23
2016-04-22T22:14:08.551Z,1009.19
2016-04-22T22:14:51.442Z,1009.22
2016-04-22T22:15:34.350Z,1009.21
2016-04-22T22:16:17.245Z,1009.22
2016-04-22T22:17:00.138Z,1009.25
2016-04-22T22:17:42.888Z,1009.26
2016-04-22T22:18:25.781Z,1009.26
2016-04-22T22:19:08.689Z,1009.26
2016-04-22T22:19:51.595Z,1009.28
2016-04-22T22:20:34.489Z,1009.22
2016-04-22T22:21:17.366Z,1009.19
2016-04-22T22:22:00.120Z,1009.26
2016-04-22T22:22:42.995Z,1009.26
2016-04-22T22:23:25.891Z,1009.21
2016-04-22T22:24:08.800Z,1009.25
2016-04-22T22:24:51.690Z,1009.26
2016-04-22T22:25:34.583Z,1009.29
2016-04-22T22:26:17.493Z,1009.26
2016-04-22T22:27:00.386Z,1009.25
2016-04-22T22:27:43.292Z,1009.24
2016-04-22T22:28:26.186Z,1009.26
2016-04-22T22:29:09.094Z,1009.23
2016-04-22T22:29:51.969Z,1009.23
2016-04-22T22:30:34.878Z,1009.24
2016-04-22T22:31:17.787Z,1009.26
2016-04-22T22:32:00.681Z,1009.25
2016-04-22T22:32:43.572Z,1009.23
2016-04-22T22:33:26.480Z,1009.22
2016-04-22T22:34:09.357Z,1009.19
2016-04-22T22:34:52.279Z,1009.2
2016-04-22T22:35:35.198Z,1009.24
2016-04-22T22:36:18.145Z,1009.21
2016-04-22T22:37:00.280Z,1009.19
2016-04-22T22:37:43.155Z,1009.2
2016-04-22T22:38:25.961Z,1009.2
2016-04-22T22:39:08.893Z,1009.19
2016-04-22T22:39:51.768Z,1009.17
2016-04-22T22:40:34.683Z,1009.15
2016-04-22T22:41:17.591Z,1009.13
2016-04-22T22:42:00.499Z,1009.14
2016-04-22T22:42:43.389Z,1009.18
2016-04-22T22:43:26.296Z,1009.16
2016-04-22T22:44:09.218Z,1009.16
2016-04-22T22:44:52.093Z,1009.17
2016-04-22T22:45:34.996Z,1009.14
2016-04-22T22:46:17.878Z,1009.14
2016-04-22T22:47:00.776Z,1009.16
2016-04-22T22:47:43.667Z,1009.16
2016-04-22T22:48:26.550Z,1009.14
2016-04-22T22:49:09.432Z,1009.12
2016-04-22T22:49:52.323Z,1009.15
2016-04-22T22:50:35.219Z,1009.14
2016-04-22T22:51:18.131Z,1009.15
2016-04-22T22:52:01.010Z,1009.21
2016-04-22T22:52:43.916Z,1009.15
2016-04-22T22:53:26.796Z,1009.16
2016-04-22T22:54:09.690Z,1009.16
2016-04-22T22:54:52.581Z,1009.17
2016-04-22T22:55:35.477Z,1009.15
2016-04-22T22:56:18.369Z,1009.18
2016-04-22T22:57:01.295Z,1009.16
2016-04-22T22:57:44.186Z,1009.17
2016-04-22T22:58:27.110Z,1009.07
2016-04-22T22:59:10.003Z,1009.14
2016-04-22T22:59:52.894Z,1009.12
2016-04-22T23:00:35.772Z,1009.12
2016-04-22T23:01:18.667Z,1009.11
2016-04-22T23:02:01.606Z,1009.09
2016-04-22T23:02:44.356Z,1009.1